createdAt,value
2018-11-13T00:00:21.410Z,102.97
2018-11-13T00:02:50.365Z,141.23
2018-11-13T00:05:18.438Z,122.27
2018-11-13T00:07:46.871Z,112.07
2018-11-13T00:10:14.971Z,90.57
2018-11-13T00:12:43.207Z,98.70
2018-11-13T00:15:12.101Z,88.10
2018-11-13T00:17:40.459Z,101.37
2018-11-13T00:20:10.735Z,109.77
2018-11-13T00:22:38.988Z,114.83
2018-11-13T00:25:08.692Z,113.77
2018-11-13T00:27:36.874Z,120.60
2018-11-13T00:30:06.659Z,114.90
2018-11-13T00:32:34.635Z,112.83
2018-11-13T00:35:03.040Z,109.10
2018-11-13T00:37:31.323Z,103.27
2018-11-13T00:39:59.863Z,101.53
2018-11-13T00:42:28.101Z,111.37
2018-11-13T00:44:56.579Z,109.26
2018-11-13T00:47:24.720Z,120.50
2018-11-13T00:49:53.106Z,110.20
2018-11-13T00:52:21.403Z,112.07
2018-11-13T00:54:49.786Z,105.37
2018-11-13T00:57:18.143Z,91.00
2018-11-13T00:59:46.651Z,93.93
2018-11-13T01:02:14.891Z,88.50
2018-11-13T01:04:43.342Z,90.10
2018-11-13T01:07:12.196Z,84.60
2018-11-13T01:09:40.167Z,88.67
2018-11-13T01:12:08.382Z,87.37
2018-11-13T01:14:36.431Z,84.03
2018-11-13T01:17:04.372Z,74.80
2018-11-13T01:19:32.618Z,92.80
2018-11-13T01:22:00.866Z,86.43
2018-11-13T01:24:29.293Z,98.47
2018-11-13T01:26:57.454Z,93.60
2018-11-13T01:29:25.745Z,98.33
2018-11-13T01:31:54.035Z,95.97
2018-11-13T01:34:22.273Z,108.83
2018-11-13T01:36:50.735Z,113.40
2018-11-13T01:39:18.827Z,115.13
2018-11-13T01:41:47.642Z,123.13
2018-11-13T01:44:15.625Z,131.73
2018-11-13T01:46:44.112Z,120.87
2018-11-13T01:49:12.351Z,126.50
2018-11-13T01:51:40.807Z,151.50
2018-11-13T01:54:09.194Z,146.90
2018-11-13T01:56:37.389Z,144.87
2018-11-13T01:59:05.669Z,147.80
2018-11-13T02:01:34.148Z,149.10
2018-11-13T02:04:02.398Z,162.50
2018-11-13T02:06:30.931Z,156.27
2018-11-13T02:08:59.199Z,157.57
2018-11-13T02:11:27.637Z,143.37
2018-11-13T02:13:55.939Z,143.97
2018-11-13T02:16:24.051Z,139.90
2018-11-13T02:18:52.492Z,138.17
2018-11-13T02:21:20.735Z,141.80
2018-11-13T02:23:49.092Z,130.57
2018-11-13T02:26:17.263Z,123.57
2018-11-13T02:28:45.170Z,119.10
2018-11-13T02:31:13.716Z,125.30
2018-11-13T02:33:41.936Z,116.87
2018-11-13T02:36:10.216Z,109.80
2018-11-13T02:38:38.501Z,111.60
2018-11-13T02:41:06.915Z,124.67
2018-11-13T02:43:34.983Z,108.33
2018-11-13T02:46:03.169Z,102.20
2018-11-13T02:48:31.358Z,111.43
2018-11-13T02:51:00.136Z,101.87
2018-11-13T02:53:28.318Z,116.73
2018-11-13T02:55:56.388Z,112.10
2018-11-13T02:58:24.303Z,108.70
2018-11-13T03:00:52.573Z,121.83
2018-11-13T03:03:21.045Z,126.37
2018-11-13T03:05:49.300Z,118.53
2018-11-13T03:08:17.622Z,116.97
2018-11-13T03:10:46.091Z,125.60
2018-11-13T03:13:14.592Z,126.13
2018-11-13T03:15:42.880Z,118.83
2018-11-13T03:18:11.047Z,111.57
2018-11-13T03:20:39.428Z,114.03
2018-11-13T03:23:07.564Z,111.60
2018-11-13T03:25:35.748Z,119.83
2018-11-13T03:28:04.039Z,116.77
2018-11-13T03:30:32.474Z,111.13
2018-11-13T03:33:00.743Z,114.87
2018-11-13T03:35:29.188Z,116.10
2018-11-13T03:37:57.543Z,113.87
2018-11-13T03:40:25.993Z,105.87
2018-11-13T03:42:54.242Z,107.80
2018-11-13T03:45:22.173Z,101.70
2018-11-13T03:47:50.392Z,105.73
2018-11-13T03:50:19.755Z,96.07
2018-11-13T03:52:48.280Z,98.07
2018-11-13T03:55:17.124Z,104.20
2018-11-13T03:57:46.172Z,95.47
2018-11-13T04:00:15.665Z,85.73
2018-11-13T04:02:43.918Z,97.47
2018-11-13T04:05:13.399Z,104.63
2018-11-13T04:07:45.863Z,121.43
2018-11-13T04:10:15.186Z,111.67
2018-11-13T04:12:43.786Z,118.83
2018-11-13T04:15:14.272Z,112.63
2018-11-13T04:17:42.344Z,117.97
2018-11-13T04:20:12.369Z,115.77
2018-11-13T04:22:41.126Z,124.57
2018-11-13T04:25:09.332Z,123.83
2018-11-13T04:27:37.463Z,124.13
2018-11-13T04:30:06.760Z,144.33
2018-11-13T04:32:34.907Z,141.70
2018-11-13T04:35:02.897Z,156.80
2018-11-13T04:37:30.895Z,132.33
2018-11-13T04:39:59.303Z,146.53
2018-11-13T04:42:27.403Z,142.67
2018-11-13T04:44:55.975Z,129.53
2018-11-13T04:47:24.191Z,124.40
2018-11-13T04:49:52.484Z,132.07
2018-11-13T04:52:20.792Z,129.13
2018-11-13T04:54:49.104Z,104.63
2018-11-13T04:57:17.242Z,117.77
2018-11-13T04:59:45.404Z,133.30
2018-11-13T05:02:13.630Z,123.50
2018-11-13T05:04:41.894Z,145.23
2018-11-13T05:07:10.220Z,140.33
2018-11-13T05:09:38.440Z,149.57
2018-11-13T05:12:06.714Z,148.93
2018-11-13T05:14:35.243Z,145.90
2018-11-13T05:17:03.520Z,137.97
2018-11-13T05:19:31.749Z,136.60
2018-11-13T05:22:00.052Z,138.50
2018-11-13T05:24:28.611Z,131.27
2018-11-13T05:26:56.735Z,121.23
2018-11-13T05:29:24.900Z,106.93
2018-11-13T05:31:53.111Z,100.13
2018-11-13T05:34:21.408Z,110.23
2018-11-13T05:36:49.754Z,108.93
2018-11-13T05:39:17.935Z,113.67
2018-11-13T05:41:46.269Z,103.33
2018-11-13T05:44:14.507Z,111.47
2018-11-13T05:46:42.595Z,110.23
2018-11-13T05:49:10.877Z,104.90
2018-11-13T05:51:39.404Z,130.87
2018-11-13T05:54:07.599Z,94.17
2018-11-13T05:56:35.388Z,101.27
2018-11-13T05:59:03.243Z,89.23
2018-11-13T06:01:31.095Z,77.03
2018-11-13T06:03:58.835Z,82.33
2018-11-13T06:06:26.610Z,86.00
2018-11-13T06:08:54.316Z,88.50
2018-11-13T06:11:22.114Z,85.87
2018-11-13T06:13:49.898Z,94.10
2018-11-13T06:16:17.701Z,109.93
2018-11-13T06:18:45.493Z,157.17
2018-11-13T06:21:13.294Z,164.70
2018-11-13T06:23:41.062Z,115.27
2018-11-13T06:26:08.811Z,99.60
2018-11-13T06:28:36.588Z,81.73
2018-11-13T06:31:04.624Z,74.77
2018-11-13T06:33:32.387Z,71.13
2018-11-13T06:36:00.144Z,65.07
2018-11-13T06:38:28.374Z,63.97
2018-11-13T06:40:56.367Z,68.97
2018-11-13T06:43:24.799Z,68.33
2018-11-13T06:45:52.827Z,92.17
2018-11-13T06:48:21.267Z,80.50
2018-11-13T06:50:49.569Z,85.17
2018-11-13T06:53:18.026Z,81.23
2018-11-13T06:55:49.882Z,77.77
2018-11-13T06:58:18.284Z,67.90
2018-11-13T07:00:46.596Z,63.23
2018-11-13T07:03:15.074Z,59.57
2018-11-13T07:05:43.360Z,53.47
2018-11-13T07:08:11.791Z,66.43
2018-11-13T07:10:40.230Z,53.70
2018-11-13T07:13:08.592Z,59.10
2018-11-13T07:15:36.787Z,55.07
2018-11-13T07:18:05.343Z,61.37
2018-11-13T07:20:34.511Z,63.73
2018-11-13T07:23:02.711Z,60.87
2018-11-13T07:25:31.312Z,60.97
2018-11-13T07:27:59.483Z,61.40
2018-11-13T07:30:28.020Z,65.13
2018-11-13T07:32:56.183Z,57.77
2018-11-13T07:35:24.478Z,59.73
2018-11-13T07:37:56.910Z,56.73
2018-11-13T07:40:24.987Z,56.37
2018-11-13T07:42:53.467Z,57.33
2018-11-13T07:45:21.720Z,56.30
2018-11-13T07:47:50.596Z,51.83
2018-11-13T07:50:18.220Z,50.73
2018-11-13T07:52:46.090Z,52.47
2018-11-13T07:55:15.047Z,61.43
2018-11-13T07:57:43.311Z,54.73
2018-11-13T08:00:14.050Z,52.40
2018-11-13T08:02:43.289Z,57.40
2018-11-13T08:05:11.654Z,53.40
2018-11-13T08:07:39.403Z,47.73
2018-11-13T08:10:08.048Z,50.03
2018-11-13T08:12:35.906Z,51.67
2018-11-13T08:15:03.971Z,50.73
2018-11-13T08:17:31.716Z,49.63
2018-11-13T08:19:59.435Z,52.40
2018-11-13T08:22:27.212Z,46.33
2018-11-13T08:24:55.407Z,46.23
2018-11-13T08:27:23.347Z,45.83
2018-11-13T08:29:52.104Z,43.30
2018-11-13T08:32:19.852Z,47.73
2018-11-13T08:34:47.656Z,47.47
2018-11-13T08:37:15.435Z,42.63
2018-11-13T08:39:43.212Z,46.87
2018-11-13T08:42:11.020Z,47.10
2018-11-13T08:44:39.242Z,46.60
2018-11-13T08:47:07.427Z,44.20
2018-11-13T08:49:35.511Z,47.53
2018-11-13T08:52:03.799Z,46.70
2018-11-13T08:54:32.104Z,46.13
2018-11-13T08:57:00.559Z,45.30
2018-11-13T08:59:28.883Z,45.93
2018-11-13T09:01:57.348Z,47.20
2018-11-13T09:04:25.424Z,47.13
2018-11-13T09:06:53.719Z,45.43
2018-11-13T09:09:22.137Z,47.60
2018-11-13T09:11:50.666Z,40.37
2018-11-13T09:14:18.923Z,39.93
2018-11-13T09:16:47.257Z,44.07
2018-11-13T09:19:15.596Z,36.37
2018-11-13T09:21:43.764Z,43.50
2018-11-13T09:24:12.015Z,37.57
2018-11-13T09:26:40.270Z,36.40
2018-11-13T09:29:07.983Z,39.43
2018-11-13T09:31:36.118Z,37.50
2018-11-13T09:34:04.096Z,37.20
2018-11-13T09:36:32.562Z,30.53
2018-11-13T09:39:00.884Z,31.37
2018-11-13T09:41:29.086Z,37.97
2018-11-13T09:43:56.842Z,32.77
2018-11-13T09:46:24.588Z,30.87
2018-11-13T09:48:52.400Z,28.17
2018-11-13T09:51:20.182Z,33.30
2018-11-13T09:53:47.965Z,33.30
2018-11-13T09:56:15.824Z,32.77
2018-11-13T09:58:43.570Z,31.03
2018-11-13T10:01:12.140Z,30.97
2018-11-13T10:03:40.828Z,28.43
2018-11-13T10:06:08.439Z,24.53
2018-11-13T10:08:36.423Z,30.43
2018-11-13T10:11:04.667Z,27.50
2018-11-13T10:13:32.848Z,24.30
2018-11-13T10:16:01.292Z,27.90
2018-11-13T10:18:29.596Z,29.60
2018-11-13T10:20:57.605Z,25.13
2018-11-13T10:23:25.406Z,31.47
2018-11-13T10:25:53.750Z,22.40
2018-11-13T10:28:21.904Z,22.00
2018-11-13T10:30:49.875Z,19.13
2018-11-13T10:33:18.016Z,20.10
2018-11-13T10:35:46.325Z,24.33
2018-11-13T10:38:14.436Z,23.67
2018-11-13T10:40:42.824Z,20.70
2018-11-13T10:43:10.892Z,20.33
2018-11-13T10:45:39.166Z,21.47
2018-11-13T10:48:07.492Z,17.30
2018-11-13T10:50:35.776Z,19.93
2018-11-13T10:53:04.084Z,21.33
2018-11-13T10:55:32.248Z,21.80
2018-11-13T10:58:00.607Z,18.27
2018-11-13T11:00:34.331Z,16.47
2018-11-13T11:03:05.299Z,11.63
2018-11-13T11:05:33.651Z,11.53
2018-11-13T11:08:01.841Z,7.13
2018-11-13T11:10:30.159Z,8.70
2018-11-13T11:12:58.542Z,9.53
2018-11-13T11:15:26.699Z,9.70
2018-11-13T11:17:55.211Z,10.20
2018-11-13T11:20:23.038Z,11.17
2018-11-13T11:22:51.034Z,9.57
2018-11-13T11:25:18.823Z,10.33
2018-11-13T11:27:46.482Z,9.00
2018-11-13T11:30:15.420Z,10.63
2018-11-13T11:32:43.807Z,8.80
2018-11-13T11:35:12.139Z,8.27
2018-11-13T11:37:40.923Z,12.77
2018-11-13T11:40:09.838Z,11.30
2018-11-13T11:42:38.339Z,11.03
2018-11-13T11:45:08.278Z,11.03
2018-11-13T11:47:36.108Z,11.37
2018-11-13T11:50:04.470Z,9.23
2018-11-13T11:52:32.239Z,8.63
2018-11-13T11:55:00.049Z,9.60
2018-11-13T11:57:27.823Z,11.67
2018-11-13T11:59:55.596Z,10.33
2018-11-13T12:02:23.517Z,6.77
2018-11-13T12:04:51.327Z,11.87
2018-11-13T12:07:19.114Z,6.90
2018-11-13T12:09:46.867Z,8.23
2018-11-13T12:12:14.672Z,7.13
2018-11-13T12:14:42.421Z,6.40
2018-11-13T12:17:10.198Z,6.53
2018-11-13T12:19:37.959Z,7.03
2018-11-13T12:22:05.751Z,9.43
2018-11-13T12:24:33.517Z,9.53
2018-11-13T12:27:01.387Z,8.20
2018-11-13T12:29:29.148Z,7.53
2018-11-13T12:31:57.184Z,8.53
2018-11-13T12:34:24.951Z,8.33
2018-11-13T12:36:52.769Z,6.40
2018-11-13T12:39:20.503Z,9.13
2018-11-13T12:41:48.251Z,6.87
2018-11-13T12:44:15.984Z,9.27
2018-11-13T12:46:43.775Z,8.23
2018-11-13T12:49:11.550Z,6.57
2018-11-13T12:51:44.671Z,9.80
2018-11-13T12:54:12.483Z,9.80
2018-11-13T12:56:40.263Z,9.73
2018-11-13T12:59:08.016Z,6.23
2018-11-13T13:01:35.809Z,9.27
2018-11-13T13:04:03.691Z,9.30
2018-11-13T13:06:31.534Z,11.70
2018-11-13T13:08:59.255Z,8.10
2018-11-13T13:11:27.031Z,8.83
2018-11-13T13:14:00.176Z,9.00
2018-11-13T13:16:27.951Z,7.33
2018-11-13T13:18:55.746Z,7.77
2018-11-13T13:21:23.586Z,6.80
2018-11-13T13:23:51.444Z,10.17
2018-11-13T13:26:19.212Z,8.67
2018-11-13T13:28:47.010Z,8.77
2018-11-13T13:31:14.754Z,6.77
2018-11-13T13:33:42.575Z,8.67
2018-11-13T13:36:10.387Z,9.77
2018-11-13T13:38:38.500Z,12.27
2018-11-13T13:41:06.523Z,16.03
2018-11-13T13:43:34.952Z,7.50
2018-11-13T13:46:02.743Z,9.20
2018-11-13T13:48:30.507Z,8.47
2018-11-13T13:50:58.301Z,10.87
2018-11-13T13:53:26.667Z,9.40
2018-11-13T13:55:54.425Z,11.67
2018-11-13T13:58:23.151Z,9.90
2018-11-13T14:00:51.229Z,9.97
2018-11-13T14:03:18.840Z,7.70
2018-11-13T14:05:46.967Z,13.57
2018-11-13T14:08:15.436Z,9.00
2018-11-13T14:10:43.370Z,9.60
2018-11-13T14:13:11.592Z,10.60
2018-11-13T14:15:39.502Z,8.40
2018-11-13T14:18:07.396Z,10.97
2018-11-13T14:20:35.209Z,14.80
2018-11-13T14:23:03.059Z,10.07
2018-11-13T14:25:30.937Z,9.17
2018-11-13T14:27:59.101Z,11.60
2018-11-13T14:30:31.131Z,9.53
2018-11-13T14:33:01.590Z,7.43
2018-11-13T14:35:29.887Z,12.00
2018-11-13T14:37:58.528Z,8.47
2018-11-13T14:40:29.755Z,11.90
2018-11-13T14:42:58.096Z,10.57
2018-11-13T14:45:26.782Z,15.53
2018-11-13T14:47:54.944Z,11.77
2018-11-13T14:50:24.075Z,13.97
2018-11-13T14:52:52.235Z,43.93
2018-11-13T14:55:23.359Z,63.87
2018-11-13T14:57:51.402Z,15.53
2018-11-13T15:00:21.415Z,14.93
2018-11-13T15:02:49.713Z,13.80
2018-11-13T15:05:18.684Z,10.50
2018-11-13T15:07:47.569Z,12.70
2018-11-13T15:10:18.144Z,10.20
2018-11-13T15:12:45.963Z,16.30
2018-11-13T15:15:13.962Z,19.50
2018-11-13T15:17:42.816Z,16.70
2018-11-13T15:20:12.991Z,15.53
2018-11-13T15:22:41.614Z,11.77
2018-11-13T15:25:11.642Z,15.67
2018-11-13T15:27:39.903Z,15.83
2018-11-13T15:30:11.988Z,16.37
2018-11-13T15:32:40.548Z,15.00
2018-11-13T15:35:09.657Z,22.63
2018-11-13T15:37:37.403Z,10.77
2018-11-13T15:40:07.683Z,15.27
2018-11-13T15:42:35.554Z,13.90
2018-11-13T15:45:03.482Z,15.87
2018-11-13T15:47:31.359Z,19.20
2018-11-13T15:49:58.306Z,14.07
2018-11-13T15:52:26.038Z,18.67
2018-11-13T15:54:53.766Z,46.57
2018-11-13T15:57:21.491Z,12.07
2018-11-13T15:59:49.246Z,19.77
2018-11-13T16:02:16.966Z,17.67
2018-11-13T16:04:44.735Z,16.93
2018-11-13T16:07:12.552Z,17.97
2018-11-13T16:09:40.356Z,14.77
2018-11-13T16:12:08.202Z,17.80
2018-11-13T16:14:36.020Z,18.80
2018-11-13T16:17:03.928Z,15.93
2018-11-13T16:19:31.662Z,20.33
2018-11-13T16:21:59.447Z,16.23
2018-11-13T16:24:27.200Z,21.80
2018-11-13T16:26:54.991Z,16.93
2018-11-13T16:29:22.907Z,40.27
2018-11-13T16:31:50.663Z,168.67
2018-11-13T16:34:25.349Z,30.93
2018-11-13T16:36:53.605Z,29.60
2018-11-13T16:39:22.180Z,33.17
2018-11-13T16:41:50.409Z,15.53
2018-11-13T16:44:18.391Z,11.93
2018-11-13T16:46:46.823Z,13.50
2018-11-13T16:49:14.976Z,14.30
2018-11-13T16:51:43.451Z,13.77
2018-11-13T16:54:11.743Z,14.80
2018-11-13T16:56:46.712Z,18.73
2018-11-13T16:59:14.815Z,15.97
2018-11-13T17:01:43.005Z,29.07
2018-11-13T17:04:11.879Z,34.70
2018-11-13T17:06:40.171Z,46.27
2018-11-13T17:09:09.864Z,57.97
2018-11-13T17:11:37.765Z,50.03
2018-11-13T17:14:05.572Z,60.27
2018-11-13T17:16:33.412Z,59.70
2018-11-13T17:19:01.234Z,41.47
2018-11-13T17:21:29.000Z,47.67
2018-11-13T17:23:56.785Z,39.20
2018-11-13T17:26:24.598Z,48.37
2018-11-13T17:28:52.387Z,41.63
2018-11-13T17:31:20.136Z,38.13
2018-11-13T17:33:47.936Z,40.73
2018-11-13T17:36:15.748Z,36.87
2018-11-13T17:38:43.503Z,53.67
2018-11-13T17:41:11.340Z,31.37
2018-11-13T17:43:39.151Z,30.07
2018-11-13T17:46:06.944Z,32.10
2018-11-13T17:48:34.766Z,57.67
2018-11-13T17:51:02.488Z,37.00
2018-11-13T17:53:30.283Z,48.73
2018-11-13T17:55:58.052Z,52.30
2018-11-13T17:58:25.860Z,54.13
2018-11-13T18:00:53.623Z,92.67
2018-11-13T18:03:21.455Z,66.80
2018-11-13T18:05:49.312Z,72.30
2018-11-13T18:08:17.059Z,91.13
2018-11-13T18:10:45.848Z,105.17
2018-11-13T18:13:14.030Z,88.43
2018-11-13T18:15:41.803Z,121.20
2018-11-13T18:18:10.225Z,107.80
2018-11-13T18:20:39.011Z,111.43
2018-11-13T18:23:08.033Z,100.17
2018-11-13T18:25:36.124Z,76.87
2018-11-13T18:28:04.084Z,80.63
2018-11-13T18:30:33.372Z,73.60
2018-11-13T18:33:01.948Z,61.80
2018-11-13T18:35:31.111Z,69.53
2018-11-13T18:37:59.898Z,72.80
2018-11-13T18:40:28.096Z,66.50
2018-11-13T18:42:57.310Z,74.03
2018-11-13T18:45:27.591Z,73.77
2018-11-13T18:47:55.447Z,87.27
2018-11-13T18:50:27.552Z,79.63
2018-11-13T18:52:55.343Z,65.10
2018-11-13T18:55:23.163Z,71.17
2018-11-13T18:57:51.046Z,122.13
2018-11-13T19:00:24.004Z,142.87
2018-11-13T19:02:51.851Z,78.97
2018-11-13T19:05:19.950Z,65.53
2018-11-13T19:07:47.788Z,79.23
2018-11-13T19:10:20.397Z,64.13
2018-11-13T19:12:48.263Z,60.57
2018-11-13T19:15:16.023Z,58.20
2018-11-13T19:17:43.770Z,67.53
2018-11-13T19:20:16.957Z,58.30
2018-11-13T19:22:44.789Z,54.63
2018-11-13T19:25:17.016Z,69.63
2018-11-13T19:27:45.733Z,52.00
2018-11-13T19:30:14.739Z,51.30
2018-11-13T19:32:42.882Z,55.43
2018-11-13T19:35:11.297Z,75.53
2018-11-13T19:37:39.465Z,75.20
2018-11-13T19:40:10.042Z,69.57
2018-11-13T19:42:38.211Z,69.10
2018-11-13T19:45:06.969Z,58.43
2018-11-13T19:47:35.259Z,48.07
2018-11-13T19:50:03.708Z,290.40
2018-11-13T19:52:31.960Z,94.30
2018-11-13T19:55:00.529Z,83.30
2018-11-13T19:57:28.709Z,90.53
2018-11-13T19:59:57.610Z,76.27
2018-11-13T20:02:26.092Z,74.70
2018-11-13T20:04:54.382Z,78.17
2018-11-13T20:07:22.827Z,73.03
2018-11-13T20:09:51.167Z,65.40
2018-11-13T20:12:19.595Z,66.47
2018-11-13T20:14:48.144Z,66.80
2018-11-13T20:17:16.419Z,71.93
2018-11-13T20:19:44.722Z,61.33
2018-11-13T20:22:12.906Z,45.20
2018-11-13T20:24:41.253Z,43.33
2018-11-13T20:27:09.443Z,38.87
2018-11-13T20:29:37.905Z,41.87
2018-11-13T20:32:06.048Z,40.40
2018-11-13T20:34:34.263Z,36.40
2018-11-13T20:37:02.357Z,41.67
2018-11-13T20:39:30.695Z,40.13
2018-11-13T20:41:59.136Z,45.40
2018-11-13T20:44:27.237Z,40.13
2018-11-13T20:46:55.700Z,38.93
2018-11-13T20:49:23.986Z,39.93
2018-11-13T20:51:52.183Z,43.10
2018-11-13T20:54:20.322Z,36.87
2018-11-13T20:56:48.550Z,37.40
2018-11-13T20:59:17.064Z,31.50
2018-11-13T21:01:45.181Z,28.63
2018-11-13T21:04:13.625Z,27.57
2018-11-13T21:06:41.827Z,30.93
2018-11-13T21:09:09.784Z,28.87
2018-11-13T21:11:38.031Z,28.23
2018-11-13T21:14:06.324Z,28.73
2018-11-13T21:16:35.032Z,30.97
2018-11-13T21:19:03.072Z,34.40
2018-11-13T21:21:31.128Z,34.77
2018-11-13T21:23:59.794Z,483.87
2018-11-13T21:26:27.807Z,38.20
2018-11-13T21:28:55.927Z,45.33
2018-11-13T21:31:23.700Z,34.10
2018-11-13T21:33:51.653Z,51.07
2018-11-13T21:36:19.393Z,38.47
2018-11-13T21:38:47.192Z,35.10
2018-11-13T21:41:14.950Z,34.43
2018-11-13T21:43:43.347Z,29.77
2018-11-13T21:46:11.892Z,31.17
2018-11-13T21:48:40.075Z,30.37
2018-11-13T21:51:08.166Z,29.30
2018-11-13T21:53:36.507Z,28.83
2018-11-13T21:56:04.691Z,24.00
2018-11-13T21:58:32.795Z,21.07
2018-11-13T22:01:01.080Z,27.00
2018-11-13T22:03:29.356Z,28.43
2018-11-13T22:05:57.922Z,26.63
2018-11-13T22:08:26.234Z,26.67
2018-11-13T22:10:54.358Z,22.83
2018-11-13T22:13:22.436Z,30.00
2018-11-13T22:15:50.977Z,26.30
2018-11-13T22:18:19.236Z,24.77
2018-11-13T22:20:47.686Z,21.50
2018-11-13T22:23:16.011Z,22.73
2018-11-13T22:25:44.228Z,23.83
2018-11-13T22:28:12.781Z,28.00
2018-11-13T22:30:40.848Z,24.50
2018-11-13T22:33:09.272Z,29.93
2018-11-13T22:35:37.564Z,29.47
2018-11-13T22:38:06.046Z,28.07
2018-11-13T22:40:34.383Z,25.03
2018-11-13T22:43:02.584Z,29.63
2018-11-13T22:45:30.871Z,25.57
2018-11-13T22:47:59.233Z,25.20
2018-11-13T22:50:34.230Z,25.47
2018-11-13T22:53:02.082Z,27.40
2018-11-13T22:55:29.862Z,27.63
2018-11-13T22:57:58.928Z,29.30
2018-11-13T23:00:36.498Z,31.67
2018-11-13T23:03:05.682Z,30.53
2018-11-13T23:05:33.430Z,27.60
2018-11-13T23:08:01.210Z,29.40
2018-11-13T23:10:29.028Z,26.60
2018-11-13T23:12:56.847Z,31.13
2018-11-13T23:15:24.535Z,32.63
2018-11-13T23:17:53.063Z,34.70
2018-11-13T23:20:21.230Z,39.97
2018-11-13T23:22:50.374Z,45.10
2018-11-13T23:25:19.320Z,36.67
2018-11-13T23:27:48.783Z,33.40
2018-11-13T23:30:21.534Z,31.03
2018-11-13T23:32:50.148Z,28.07
2018-11-13T23:35:18.403Z,29.20
2018-11-13T23:37:48.794Z,31.80
2018-11-13T23:40:18.066Z,32.77
2018-11-13T23:42:46.560Z,27.30
2018-11-13T23:45:15.806Z,23.87
2018-11-13T23:47:44.308Z,33.47
2018-11-13T23:50:12.803Z,34.43
2018-11-13T23:52:41.038Z,34.70
2018-11-13T23:55:10.324Z,40.83
2018-11-13T23:57:38.780Z,33.27
